Detall de PIREP

Printer-friendly versionPDF version

[2011/02/16 22:57:00]
Flight IATA:CT3104
Pilot Number:026
Company ICAO:CAT
Aircraft Type:DC85/A
PAX:132
Departing Airport: LIEA
Destination Airport: LFMP
Alternate Airport:LFBO
Online: VATSIM
Route:GINOX UM732 NISEK UT175 DIVKO UM731 FJR/N0330F190 G39 BRUSC
Flight Level:F300
No Slew and time accel
No pause
Crash detect
Detect pilot in Cockpit between each 30 and 45 minutes
22:57 Zero fuel Weight: 178051 Lbs, Fuel Weight: 24014 Lbs
22:57 VATSIM:LIEA 162220Z 23013KT 9999 SCT030 11/07 Q1002
22:57 VATSIM:LFMP 162230Z AUTO 35004KT 9999 NSC 09/06 Q0992
22:58 VOICE CATALONIAN / INTERHUB ROUTE CT3104
23:02 Parking Brakes off
23:09 Take-off
23:09 Take off Weight: 201089 Lbs
23:09 Wind: 230º @ 014 Knots Heading: 204º
23:09 POS N40º 37´ 40´´ E008º 17´ 17´´
23:09 Gear Up: 167 Knots
23:09 Flaps:3 at 167 Knots
23:10 Flaps:2 at 147 Knots
23:11 Flaps:1 at 174 Knots
23:12 Flaps:0 at 208 Knots
23:23 TOC
23:23 Fuel Weight: 18644 Lb
23:24 Wind:235º@027 Knots Heading: 309º Ground Speed: 430 Knots Altitude 29478 ft
23:39 Wind:359º@056 Knots Heading: 316º Ground Speed: 444 Knots Altitude 29501 ft
23:46 TOD
23:46 Fuel Weight: 12718 Lb
23:54 Wind:050º@043 Knots Heading: 287º Ground Speed: 450 Knots Altitude 21128 ft
00:07 Flaps:1 at 265 Knots
00:08 Gear Down: 253 Knots
00:09 Wind:068º@005 Knots Heading: 224º Ground Speed: 197 Knots Altitude 1594 ft
00:10 Flaps:2 at 171 Knots
00:12 Flaps:3 at 155 Knots
00:13 Flaps:4 at 161 Knots
00:13 Flaps:5 at 139 Knots
00:13 TouchDown:Rate -285 ft/min Speed: 124 Knots
00:14 VATSIM:LFMP 170000Z AUTO VRB01KT 9999 NSC 08/06 Q0992
00:14 Land
00:14 Wind:072º@005 Knots
00:14 Heading: 329º
00:14 Flight Duration: 01:05
00:14 Landing Weight: 186942 Lbs
00:14 POS N42º 45´ 01´´ E002º 51´ 53´´
00:18 Parkingbrakes on
00:18 Block to Block Duration: 01:16
00:18 Final Fuel: 8500 Lbls
00:18 Spent Fuel: 15513 Lbls
00:18 Flight Length: 409 NM
00:18 TOD Land Length: 163 NM

Exportar CSV

Powered by Drupal - Modified by Danger4k